sensor_id;sensor_type;location;lat;lon;timestamp;P1;durP1;ratioP1;P2;durP2;ratioP2
39104;SDS011;46464;51.154;13.812;2023-09-08T14:26:52;7.93;;;3.30;;
39104;SDS011;46464;51.154;13.812;2023-09-08T14:29:21;6.43;;;3.55;;
39104;SDS011;46464;51.154;13.812;2023-09-08T14:31:49;5.90;;;3.72;;
39104;SDS011;46464;51.154;13.812;2023-09-08T14:34:15;5.75;;;3.20;;
39104;SDS011;46464;51.154;13.812;2023-09-08T14:36:43;5.78;;;3.40;;
39104;SDS011;46464;51.154;13.812;2023-09-08T14:39:10;4.53;;;3.30;;
39104;SDS011;46464;51.154;13.812;2023-09-08T14:41:36;3.95;;;3.15;;
39104;SDS011;46464;51.154;13.812;2023-09-08T14:44:06;4.82;;;3.33;;
39104;SDS011;46464;51.154;13.812;2023-09-08T14:46:32;6.25;;;3.40;;
39104;SDS011;46464;51.154;13.812;2023-09-08T14:48:59;4.93;;;3.60;;
39104;SDS011;46464;51.154;13.812;2023-09-08T14:51:26;6.20;;;3.72;;
39104;SDS011;46464;51.154;13.812;2023-09-08T14:53:52;6.82;;;3.42;;
39104;SDS011;46464;51.154;13.812;2023-09-08T14:56:19;5.32;;;3.13;;
39104;SDS011;46464;51.154;13.812;2023-09-08T14:58:45;4.72;;;3.25;;
39104;SDS011;46464;51.154;13.812;2023-09-08T15:01:12;4.65;;;3.15;;
39104;SDS011;46464;51.154;13.812;2023-09-08T15:03:40;4.15;;;3.08;;
39104;SDS011;46464;51.154;13.812;2023-09-08T15:06:07;4.95;;;3.20;;
39104;SDS011;46464;51.154;13.812;2023-09-08T15:08:35;4.78;;;3.47;;
39104;SDS011;46464;51.154;13.812;2023-09-08T15:11:02;4.85;;;3.47;;
39104;SDS011;46464;51.154;13.812;2023-09-08T15:13:28;3.85;;;2.90;;
39104;SDS011;46464;51.154;13.812;2023-09-08T15:15:57;3.90;;;3.35;;
39104;SDS011;46464;51.154;13.812;2023-09-08T15:18:24;4.55;;;3.40;;
39104;SDS011;46464;51.154;13.812;2023-09-08T15:20:52;5.28;;;3.63;;
39104;SDS011;46464;51.154;13.812;2023-09-08T15:23:20;5.25;;;3.05;;
39104;SDS011;46464;51.154;13.812;2023-09-08T15:25:54;4.47;;;3.20;;
39104;SDS011;46464;51.154;13.812;2023-09-08T15:28:22;4.50;;;3.08;;
39104;SDS011;46464;51.154;13.812;2023-09-08T15:30:49;5.40;;;3.03;;
39104;SDS011;46464;51.154;13.812;2023-09-08T15:33:17;4.32;;;3.10;;
39104;SDS011;46464;51.154;13.812;2023-09-08T15:35:52;6.15;;;3.45;;
39104;SDS011;46464;51.154;13.812;2023-09-08T15:38:18;6.10;;;3.33;;
39104;SDS011;46464;51.154;13.812;2023-09-08T15:43:38;5.13;;;3.35;;
39104;SDS011;46464;51.154;13.812;2023-09-08T15:46:07;4.95;;;3.25;;
39104;SDS011;46464;51.154;13.812;2023-09-08T15:48:34;4.45;;;3.40;;
39104;SDS011;46464;51.154;13.812;2023-09-08T15:51:01;5.80;;;3.70;;
39104;SDS011;46464;51.154;13.812;2023-09-08T15:53:27;4.57;;;3.28;;
39104;SDS011;46464;51.154;13.812;2023-09-08T15:55:54;5.95;;;3.45;;
39104;SDS011;46464;51.154;13.812;2023-09-08T15:58:21;8.25;;;3.50;;
39104;SDS011;46464;51.154;13.812;2023-09-08T16:00:48;6.43;;;3.67;;
39104;SDS011;46464;51.154;13.812;2023-09-08T16:03:15;6.10;;;3.30;;
39104;SDS011;46464;51.154;13.812;2023-09-08T16:05:43;4.10;;;3.40;;
39104;SDS011;46464;51.154;13.812;2023-09-08T16:10:36;5.93;;;3.55;;
39104;SDS011;46464;51.154;13.812;2023-09-08T16:13:02;5.43;;;3.53;;
39104;SDS011;46464;51.154;13.812;2023-09-08T16:15:29;6.22;;;3.85;;
39104;SDS011;46464;51.154;13.812;2023-09-08T16:20:23;4.38;;;3.20;;
39104;SDS011;46464;51.154;13.812;2023-09-08T16:22:50;6.05;;;3.53;;
39104;SDS011;46464;51.154;13.812;2023-09-08T16:25:16;6.45;;;3.30;;
39104;SDS011;46464;51.154;13.812;2023-09-08T16:27:43;5.18;;;2.90;;
39104;SDS011;46464;51.154;13.812;2023-09-08T16:30:14;5.32;;;3.50;;
39104;SDS011;46464;51.154;13.812;2023-09-08T16:33:00;4.60;;;3.30;;
39104;SDS011;46464;51.154;13.812;2023-09-08T16:35:27;6.40;;;3.20;;
39104;SDS011;46464;51.154;13.812;2023-09-08T16:37:55;5.78;;;3.50;;
39104;SDS011;46464;51.154;13.812;2023-09-08T16:42:52;4.55;;;3.25;;
39104;SDS011;46464;51.154;13.812;2023-09-08T16:45:18;7.18;;;3.35;;
39104;SDS011;46464;51.154;13.812;2023-09-08T16:50:11;4.03;;;3.30;;
39104;SDS011;46464;51.154;13.812;2023-09-08T16:52:38;4.85;;;3.50;;
39104;SDS011;46464;51.154;13.812;2023-09-08T16:57:37;8.68;;;3.28;;
39104;SDS011;46464;51.154;13.812;2023-09-08T17:00:12;6.72;;;3.53;;
39104;SDS011;46464;51.154;13.812;2023-09-08T17:02:38;4.53;;;3.42;;
39104;SDS011;46464;51.154;13.812;2023-09-08T17:05:05;3.65;;;2.60;;
39104;SDS011;46464;51.154;13.812;2023-09-08T17:07:34;7.57;;;3.20;;
39104;SDS011;46464;51.154;13.812;2023-09-08T17:10:01;4.32;;;3.30;;
39104;SDS011;46464;51.154;13.812;2023-09-08T17:12:38;4.72;;;3.45;;
39104;SDS011;46464;51.154;13.812;2023-09-08T17:15:06;5.82;;;3.67;;
39104;SDS011;46464;51.154;13.812;2023-09-08T17:17:33;6.22;;;3.17;;
39104;SDS011;46464;51.154;13.812;2023-09-08T17:20:00;5.35;;;3.40;;
39104;SDS011;46464;51.154;13.812;2023-09-08T17:22:27;5.82;;;3.60;;
39104;SDS011;46464;51.154;13.812;2023-09-08T17:27:20;4.90;;;3.42;;
39104;SDS011;46464;51.154;13.812;2023-09-08T17:32:13;4.72;;;3.50;;
39104;SDS011;46464;51.154;13.812;2023-09-08T17:37:06;7.45;;;3.40;;
39104;SDS011;46464;51.154;13.812;2023-09-08T17:39:33;7.45;;;3.75;;
39104;SDS011;46464;51.154;13.812;2023-09-08T17:42:00;6.18;;;3.90;;
39104;SDS011;46464;51.154;13.812;2023-09-08T17:44:26;9.23;;;4.15;;
39104;SDS011;46464;51.154;13.812;2023-09-08T17:49:20;7.07;;;3.80;;
39104;SDS011;46464;51.154;13.812;2023-09-08T17:51:46;5.72;;;3.65;;
39104;SDS011;46464;51.154;13.812;2023-09-08T17:56:40;5.63;;;4.35;;
39104;SDS011;46464;51.154;13.812;2023-09-08T17:59:06;6.18;;;4.13;;
39104;SDS011;46464;51.154;13.812;2023-09-08T18:01:33;6.38;;;4.10;;
39104;SDS011;46464;51.154;13.812;2023-09-08T18:04:03;6.55;;;4.30;;
39104;SDS011;46464;51.154;13.812;2023-09-08T18:06:36;6.97;;;4.25;;
39104;SDS011;46464;51.154;13.812;2023-09-08T18:09:03;11.00;;;4.28;;
39104;SDS011;46464;51.154;13.812;2023-09-08T18:11:29;6.55;;;4.13;;
39104;SDS011;46464;51.154;13.812;2023-09-08T18:13:56;5.78;;;4.63;;
39104;SDS011;46464;51.154;13.812;2023-09-08T18:16:25;7.75;;;4.30;;
39104;SDS011;46464;51.154;13.812;2023-09-08T18:23:44;6.72;;;4.38;;
39104;SDS011;46464;51.154;13.812;2023-09-08T18:26:12;6.15;;;4.22;;
39104;SDS011;46464;51.154;13.812;2023-09-08T18:28:42;10.65;;;5.15;;
39104;SDS011;46464;51.154;13.812;2023-09-08T18:31:09;6.07;;;4.00;;
39104;SDS011;46464;51.154;13.812;2023-09-08T18:33:37;9.23;;;4.50;;
39104;SDS011;46464;51.154;13.812;2023-09-08T18:36:04;7.47;;;4.28;;
39104;SDS011;46464;51.154;13.812;2023-09-08T18:38:31;6.30;;;4.15;;
39104;SDS011;46464;51.154;13.812;2023-09-08T18:40:58;10.07;;;4.55;;
39104;SDS011;46464;51.154;13.812;2023-09-08T18:43:25;6.22;;;4.70;;
39104;SDS011;46464;51.154;13.812;2023-09-08T18:45:51;7.35;;;4.75;;
39104;SDS011;46464;51.154;13.812;2023-09-08T18:48:18;8.32;;;5.20;;
39104;SDS011;46464;51.154;13.812;2023-09-08T18:50:47;6.82;;;4.75;;
39104;SDS011;46464;51.154;13.812;2023-09-08T18:53:14;7.18;;;4.88;;
39104;SDS011;46464;51.154;13.812;2023-09-08T18:55:41;9.85;;;4.82;;
39104;SDS011;46464;51.154;13.812;2023-09-08T18:58:08;7.70;;;5.25;;
39104;SDS011;46464;51.154;13.812;2023-09-08T19:00:35;6.32;;;4.75;;
39104;SDS011;46464;51.154;13.812;2023-09-08T19:03:02;8.65;;;5.20;;
39104;SDS011;46464;51.154;13.812;2023-09-08T19:05:29;8.25;;;5.00;;
39104;SDS011;46464;51.154;13.812;2023-09-08T19:07:56;14.20;;;6.00;;
39104;SDS011;46464;51.154;13.812;2023-09-08T19:10:23;6.85;;;4.93;;
39104;SDS011;46464;51.154;13.812;2023-09-08T19:12:49;6.40;;;5.03;;
39104;SDS011;46464;51.154;13.812;2023-09-08T19:17:43;9.88;;;5.25;;
39104;SDS011;46464;51.154;13.812;2023-09-08T19:22:37;7.80;;;5.03;;
39104;SDS011;46464;51.154;13.812;2023-09-08T19:25:03;8.10;;;5.18;;
39104;SDS011;46464;51.154;13.812;2023-09-08T19:27:30;9.57;;;5.72;;
39104;SDS011;46464;51.154;13.812;2023-09-08T19:29:57;11.98;;;6.45;;
39104;SDS011;46464;51.154;13.812;2023-09-08T19:32:25;8.27;;;5.78;;
39104;SDS011;46464;51.154;13.812;2023-09-08T19:34:51;10.10;;;5.85;;
39104;SDS011;46464;51.154;13.812;2023-09-08T19:42:11;13.70;;;6.55;;
39104;SDS011;46464;51.154;13.812;2023-09-08T19:44:38;7.53;;;6.07;;
39104;SDS011;46464;51.154;13.812;2023-09-08T19:47:04;12.15;;;6.70;;
39104;SDS011;46464;51.154;13.812;2023-09-08T19:49:31;7.45;;;6.25;;
39104;SDS011;46464;51.154;13.812;2023-09-08T19:51:57;7.15;;;5.55;;
39104;SDS011;46464;51.154;13.812;2023-09-08T19:54:24;8.50;;;5.65;;
39104;SDS011;46464;51.154;13.812;2023-09-08T19:56:50;7.93;;;6.13;;
39104;SDS011;46464;51.154;13.812;2023-09-08T19:59:17;7.80;;;5.65;;
39104;SDS011;46464;51.154;13.812;2023-09-08T20:01:45;8.05;;;6.85;;
39104;SDS011;46464;51.154;13.812;2023-09-08T20:04:12;9.05;;;6.47;;
39104;SDS011;46464;51.154;13.812;2023-09-08T20:06:39;9.30;;;6.18;;
39104;SDS011;46464;51.154;13.812;2023-09-08T20:09:09;7.78;;;6.07;;
39104;SDS011;46464;51.154;13.812;2023-09-08T20:11:38;8.32;;;6.13;;
39104;SDS011;46464;51.154;13.812;2023-09-08T20:14:08;7.03;;;5.90;;
39104;SDS011;46464;51.154;13.812;2023-09-08T20:16:35;8.93;;;6.28;;
39104;SDS011;46464;51.154;13.812;2023-09-08T20:19:02;9.45;;;7.03;;
39104;SDS011;46464;51.154;13.812;2023-09-08T20:21:29;10.88;;;7.15;;
39104;SDS011;46464;51.154;13.812;2023-09-08T20:23:57;10.98;;;7.65;;
39104;SDS011;46464;51.154;13.812;2023-09-08T20:26:23;8.98;;;6.72;;
39104;SDS011;46464;51.154;13.812;2023-09-08T20:28:50;10.43;;;7.45;;
39104;SDS011;46464;51.154;13.812;2023-09-08T20:31:17;9.57;;;7.72;;
39104;SDS011;46464;51.154;13.812;2023-09-08T20:36:11;13.43;;;7.00;;
39104;SDS011;46464;51.154;13.812;2023-09-08T20:38:38;10.75;;;8.13;;
39104;SDS011;46464;51.154;13.812;2023-09-08T20:43:32;8.63;;;7.05;;
39104;SDS011;46464;51.154;13.812;2023-09-08T20:45:59;11.10;;;7.90;;
39104;SDS011;46464;51.154;13.812;2023-09-08T20:48:31;15.25;;;9.75;;
39104;SDS011;46464;51.154;13.812;2023-09-08T20:51:04;14.18;;;7.72;;
39104;SDS011;46464;51.154;13.812;2023-09-08T20:53:32;11.88;;;9.10;;
39104;SDS011;46464;51.154;13.812;2023-09-08T20:56:02;10.10;;;7.88;;
39104;SDS011;46464;51.154;13.812;2023-09-08T20:58:29;15.32;;;9.00;;
39104;SDS011;46464;51.154;13.812;2023-09-08T21:00:56;13.77;;;9.50;;
39104;SDS011;46464;51.154;13.812;2023-09-08T21:03:23;10.85;;;8.80;;
39104;SDS011;46464;51.154;13.812;2023-09-08T21:05:50;14.00;;;9.82;;
39104;SDS011;46464;51.154;13.812;2023-09-08T21:08:17;14.05;;;8.45;;
39104;SDS011;46464;51.154;13.812;2023-09-08T21:10:48;12.43;;;8.77;;
39104;SDS011;46464;51.154;13.812;2023-09-08T21:13:15;9.27;;;8.23;;
39104;SDS011;46464;51.154;13.812;2023-09-08T21:15:41;10.07;;;8.98;;
39104;SDS011;46464;51.154;13.812;2023-09-08T21:18:08;10.30;;;7.80;;
39104;SDS011;46464;51.154;13.812;2023-09-08T21:20:35;10.48;;;8.73;;
39104;SDS011;46464;51.154;13.812;2023-09-08T21:23:02;10.80;;;8.43;;
39104;SDS011;46464;51.154;13.812;2023-09-08T21:25:30;11.45;;;8.73;;
39104;SDS011;46464;51.154;13.812;2023-09-08T21:27:57;12.85;;;9.45;;
39104;SDS011;46464;51.154;13.812;2023-09-08T21:32:51;12.50;;;8.80;;
39104;SDS011;46464;51.154;13.812;2023-09-08T21:35:18;10.85;;;8.32;;
39104;SDS011;46464;51.154;13.812;2023-09-08T21:40:11;14.55;;;9.40;;
39104;SDS011;46464;51.154;13.812;2023-09-08T21:42:38;9.82;;;8.10;;
39104;SDS011;46464;51.154;13.812;2023-09-08T21:45:05;8.60;;;7.70;;
39104;SDS011;46464;51.154;13.812;2023-09-08T21:47:32;12.13;;;8.23;;
39104;SDS011;46464;51.154;13.812;2023-09-08T21:52:26;11.05;;;7.97;;
39104;SDS011;46464;51.154;13.812;2023-09-08T21:55:03;11.70;;;8.25;;
39104;SDS011;46464;51.154;13.812;2023-09-08T21:57:30;11.65;;;8.10;;
39104;SDS011;46464;51.154;13.812;2023-09-08T21:59:57;9.85;;;7.47;;
39104;SDS011;46464;51.154;13.812;2023-09-08T22:02:23;9.73;;;7.70;;
39104;SDS011;46464;51.154;13.812;2023-09-08T22:04:50;9.77;;;7.55;;
39104;SDS011;46464;51.154;13.812;2023-09-08T22:07:17;10.00;;;8.23;;
39104;SDS011;46464;51.154;13.812;2023-09-08T22:09:43;9.30;;;7.07;;
39104;SDS011;46464;51.154;13.812;2023-09-08T22:12:14;11.73;;;8.65;;
39104;SDS011;46464;51.154;13.812;2023-09-08T22:14:41;10.50;;;8.00;;
39104;SDS011;46464;51.154;13.812;2023-09-08T22:17:07;12.52;;;8.43;;
39104;SDS011;46464;51.154;13.812;2023-09-08T22:19:34;13.82;;;9.70;;
39104;SDS011;46464;51.154;13.812;2023-09-08T22:22:00;11.10;;;8.57;;
39104;SDS011;46464;51.154;13.812;2023-09-08T22:24:27;10.80;;;8.18;;
39104;SDS011;46464;51.154;13.812;2023-09-08T22:26:54;10.30;;;7.85;;
39104;SDS011;46464;51.154;13.812;2023-09-08T22:29:21;9.32;;;7.90;;
39104;SDS011;46464;51.154;13.812;2023-09-08T22:31:48;10.10;;;7.45;;
39104;SDS011;46464;51.154;13.812;2023-09-08T22:34:15;11.90;;;9.18;;
39104;SDS011;46464;51.154;13.812;2023-09-08T22:39:08;10.70;;;8.40;;
39104;SDS011;46464;51.154;13.812;2023-09-08T22:41:37;11.98;;;9.00;;
39104;SDS011;46464;51.154;13.812;2023-09-08T22:44:05;11.20;;;8.10;;
39104;SDS011;46464;51.154;13.812;2023-09-08T22:46:31;9.57;;;8.43;;
39104;SDS011;46464;51.154;13.812;2023-09-08T22:48:58;13.27;;;8.60;;
39104;SDS011;46464;51.154;13.812;2023-09-08T22:51:24;12.18;;;9.02;;
39104;SDS011;46464;51.154;13.812;2023-09-08T22:53:51;11.38;;;9.23;;
39104;SDS011;46464;51.154;13.812;2023-09-08T22:56:18;16.75;;;9.20;;
39104;SDS011;46464;51.154;13.812;2023-09-08T22:58:45;12.23;;;8.45;;
39104;SDS011;46464;51.154;13.812;2023-09-08T23:01:11;9.98;;;8.48;;
39104;SDS011;46464;51.154;13.812;2023-09-08T23:03:38;13.57;;;8.48;;
39104;SDS011;46464;51.154;13.812;2023-09-08T23:06:05;10.57;;;7.80;;
39104;SDS011;46464;51.154;13.812;2023-09-08T23:08:32;9.80;;;8.45;;
39104;SDS011;46464;51.154;13.812;2023-09-08T23:10:58;10.65;;;8.10;;
39104;SDS011;46464;51.154;13.812;2023-09-08T23:13:25;11.82;;;8.02;;
39104;SDS011;46464;51.154;13.812;2023-09-08T23:15:51;9.60;;;7.88;;
39104;SDS011;46464;51.154;13.812;2023-09-08T23:18:18;9.57;;;8.20;;
39104;SDS011;46464;51.154;13.812;2023-09-08T23:20:47;8.82;;;7.50;;
39104;SDS011;46464;51.154;13.812;2023-09-08T23:23:14;11.77;;;8.60;;
39104;SDS011;46464;51.154;13.812;2023-09-08T23:28:07;10.70;;;7.78;;
39104;SDS011;46464;51.154;13.812;2023-09-08T23:30:33;8.85;;;7.53;;
39104;SDS011;46464;51.154;13.812;2023-09-08T23:33:01;9.98;;;8.20;;
39104;SDS011;46464;51.154;13.812;2023-09-08T23:35:28;10.35;;;8.48;;
39104;SDS011;46464;51.154;13.812;2023-09-08T23:37:54;9.35;;;7.95;;
39104;SDS011;46464;51.154;13.812;2023-09-08T23:40:21;8.48;;;6.88;;
39104;SDS011;46464;51.154;13.812;2023-09-08T23:42:47;10.10;;;8.10;;
39104;SDS011;46464;51.154;13.812;2023-09-08T23:45:14;13.02;;;8.80;;
39104;SDS011;46464;51.154;13.812;2023-09-08T23:47:40;9.80;;;8.27;;
39104;SDS011;46464;51.154;13.812;2023-09-08T23:50:07;14.70;;;9.27;;
39104;SDS011;46464;51.154;13.812;2023-09-08T23:52:34;10.50;;;8.02;;
39104;SDS011;46464;51.154;13.812;2023-09-08T23:55:01;9.05;;;7.45;;
39104;SDS011;46464;51.154;13.812;2023-09-08T23:57:27;8.95;;;7.68;;
39104;SDS011;46464;51.154;13.812;2023-09-08T23:59:54;8.35;;;7.40;;
